createdAt,value
2022-09-23T03:53:32.813Z,11.88
2022-09-23T03:55:59.212Z,12.98
2022-09-23T03:58:25.616Z,12.32
2022-09-23T04:00:54.627Z,11.20
2022-09-23T04:03:22.719Z,9.65
2022-09-23T04:05:49.330Z,13.85
2022-09-23T04:08:15.746Z,11.90
2022-09-23T04:10:42.286Z,11.52
2022-09-23T04:13:09.336Z,13.40
2022-09-23T04:15:35.782Z,10.10
2022-09-23T04:18:03.263Z,12.45
2022-09-23T04:20:30.198Z,13.18
2022-09-23T04:22:56.791Z,11.52
2022-09-23T04:25:23.193Z,9.97
2022-09-23T04:27:49.939Z,10.15
2022-09-23T04:30:16.723Z,11.52
2022-09-23T04:32:43.199Z,9.13
2022-09-23T04:35:09.605Z,11.20
2022-09-23T04:37:36.041Z,11.43
2022-09-23T04:40:03.576Z,11.20
2022-09-23T04:42:30.804Z,11.00
2022-09-23T04:44:57.832Z,13.27
2022-09-23T04:47:24.241Z,11.35
2022-09-23T04:49:50.629Z,12.03
2022-09-23T04:52:17.120Z,9.85
2022-09-23T04:54:43.537Z,11.48
2022-09-23T04:57:10.897Z,11.00
2022-09-23T04:59:37.409Z,11.25
2022-09-23T05:02:04.023Z,11.47
2022-09-23T05:04:31.378Z,12.07
2022-09-23T05:07:02.813Z,12.93
2022-09-23T05:09:29.758Z,12.13
2022-09-23T05:11:56.185Z,9.57
2022-09-23T05:14:22.619Z,10.07
2022-09-23T05:16:49.065Z,11.13
2022-09-23T05:19:15.458Z,12.07
2022-09-23T05:21:42.118Z,11.80
2022-09-23T05:24:08.746Z,10.35
2022-09-23T05:26:35.181Z,12.00
2022-09-23T05:29:01.606Z,10.50
2022-09-23T05:31:29.432Z,11.95
2022-09-23T05:34:01.661Z,10.50
2022-09-23T05:36:33.069Z,9.60
2022-09-23T05:39:03.182Z,11.00
2022-09-23T05:41:29.962Z,11.43
2022-09-23T05:43:58.230Z,14.15
2022-09-23T05:46:29.671Z,13.80
2022-09-23T05:49:01.814Z,11.57
2022-09-23T05:51:31.134Z,13.77
2022-09-23T05:53:58.979Z,12.07
2022-09-23T05:56:27.384Z,11.73
2022-09-23T05:58:55.286Z,8.63
2022-09-23T06:01:26.709Z,11.98
2022-09-23T06:03:55.853Z,11.03
2022-09-23T06:06:27.388Z,10.68
2022-09-23T06:08:53.847Z,10.27
2022-09-23T06:11:21.436Z,11.70
2022-09-23T06:13:48.575Z,9.93
2022-09-23T06:16:15.848Z,12.17
2022-09-23T06:18:44.622Z,11.77
2022-09-23T06:21:15.574Z,10.98
2022-09-23T06:23:43.036Z,12.50
2022-09-23T06:26:11.917Z,12.30
2022-09-23T06:28:40.363Z,19.23
2022-09-23T06:31:19.178Z,17.10
2022-09-23T06:33:46.144Z,15.75
2022-09-23T06:36:18.110Z,14.70
2022-09-23T06:38:57.249Z,15.98
2022-09-23T06:41:23.706Z,19.13
2022-09-23T06:43:50.165Z,15.23
2022-09-23T06:46:17.181Z,14.13
2022-09-23T06:48:46.151Z,15.70
2022-09-23T06:51:19.035Z,12.90
2022-09-23T06:53:46.836Z,11.07
2022-09-23T06:56:13.327Z,12.98
2022-09-23T06:58:39.946Z,14.63
2022-09-23T07:01:11.985Z,14.85
2022-09-23T07:03:38.990Z,14.70
2022-09-23T07:06:06.412Z,13.73
2022-09-23T07:08:36.214Z,12.65
2022-09-23T07:11:05.647Z,14.23
2022-09-23T07:13:33.508Z,12.38
2022-09-23T07:16:02.092Z,14.57
2022-09-23T07:18:36.414Z,14.70
2022-09-23T07:21:17.143Z,10.45
2022-09-23T07:23:47.870Z,12.88
2022-09-23T07:26:15.543Z,9.50
2022-09-23T07:28:42.492Z,10.55
2022-09-23T07:31:11.427Z,9.77
2022-09-23T07:33:39.800Z,8.00
2022-09-23T07:36:14.884Z,8.57
2022-09-23T07:38:45.250Z,9.70
2022-09-23T07:41:15.006Z,8.85
2022-09-23T07:43:43.785Z,9.30
2022-09-23T07:46:14.172Z,7.25
2022-09-23T07:48:43.573Z,7.78
2022-09-23T07:51:14.079Z,13.20
2022-09-23T07:53:40.572Z,7.25
2022-09-23T07:56:07.244Z,7.67
2022-09-23T07:58:34.790Z,12.57
2022-09-23T08:01:06.748Z,10.32
2022-09-23T08:03:33.446Z,9.52
2022-09-23T08:06:11.990Z,8.48
2022-09-23T08:08:40.383Z,10.57
2022-09-23T08:11:08.419Z,8.90
2022-09-23T08:13:34.821Z,8.48
2022-09-23T08:16:01.571Z,9.48
2022-09-23T08:18:28.202Z,9.82
2022-09-23T08:20:56.727Z,9.07
2022-09-23T08:23:23.236Z,10.90
2022-09-23T08:25:59.473Z,9.85
2022-09-23T08:28:26.706Z,11.40
2022-09-23T08:30:53.164Z,8.93
2022-09-23T08:33:23.169Z,9.83
2022-09-23T08:35:50.692Z,9.68
2022-09-23T08:38:17.108Z,8.60
2022-09-23T08:40:47.079Z,7.85
2022-09-23T08:43:28.973Z,10.13
2022-09-23T08:45:58.351Z,10.07
2022-09-23T08:48:34.993Z,12.40
2022-09-23T08:51:06.791Z,9.48
2022-09-23T08:53:35.853Z,9.73
2022-09-23T08:56:17.006Z,8.52
2022-09-23T08:59:07.556Z,8.77
2022-09-23T09:01:42.776Z,12.80
2022-09-23T09:04:27.857Z,8.25
2022-09-23T09:07:31.814Z,11.43
2022-09-23T09:10:15.417Z,10.10
2022-09-23T09:12:50.986Z,9.93
2022-09-23T09:15:27.277Z,10.70
2022-09-23T09:18:26.194Z,10.77
2022-09-23T09:21:15.977Z,10.40
2022-09-23T09:23:56.574Z,10.80
2022-09-23T09:26:26.811Z,11.60
2022-09-23T09:29:33.752Z,11.23
2022-09-23T09:32:00.458Z,10.00
2022-09-23T09:34:47.219Z,11.55
2022-09-23T09:37:33.614Z,8.43
2022-09-23T09:40:00.316Z,11.83
2022-09-23T09:42:35.670Z,15.75
2022-09-23T09:45:05.076Z,10.38
2022-09-23T09:47:47.316Z,9.15
2022-09-23T09:50:21.174Z,8.82
2022-09-23T09:52:48.899Z,8.23
2022-09-23T09:55:25.274Z,9.13
2022-09-23T09:57:55.642Z,9.15
2022-09-23T10:00:22.011Z,8.02
2022-09-23T10:02:56.583Z,8.38
2022-09-23T10:05:46.035Z,9.43
2022-09-23T10:08:15.377Z,8.73
2022-09-23T10:11:10.632Z,10.18
2022-09-23T10:13:37.864Z,8.40
2022-09-23T10:16:07.044Z,8.18
2022-09-23T10:18:37.419Z,7.80
2022-09-23T10:21:14.947Z,10.05
2022-09-23T10:23:54.583Z,8.68
2022-09-23T10:26:33.016Z,7.72
2022-09-23T10:29:04.955Z,10.45
2022-09-23T10:31:35.404Z,12.07
2022-09-23T10:34:05.916Z,8.82
2022-09-23T10:36:32.944Z,10.75
2022-09-23T10:39:20.456Z,11.60
2022-09-23T10:42:21.158Z,9.80
2022-09-23T10:45:21.535Z,7.73
2022-09-23T10:47:57.494Z,8.90
2022-09-23T10:50:31.034Z,7.90
2022-09-23T10:53:11.704Z,8.15
2022-09-23T10:55:50.311Z,8.68
2022-09-23T10:58:40.276Z,7.63
2022-09-23T11:01:13.403Z,9.02
2022-09-23T11:03:42.695Z,8.85
2022-09-23T11:06:21.314Z,7.30
2022-09-23T11:09:06.978Z,7.90
2022-09-23T11:11:46.026Z,9.43
2022-09-23T11:14:34.078Z,10.30
2022-09-23T11:17:35.556Z,6.68
2022-09-23T11:20:27.417Z,9.30
2022-09-23T11:23:30.343Z,10.40
2022-09-23T11:26:05.998Z,8.57
2022-09-23T11:28:55.043Z,8.63
2022-09-23T11:31:59.523Z,9.07
2022-09-23T11:34:56.699Z,10.98
2022-09-23T11:37:37.558Z,7.80
2022-09-23T11:40:15.760Z,8.07
2022-09-23T11:42:53.501Z,7.70
2022-09-23T11:45:24.887Z,8.70
2022-09-23T11:48:04.381Z,13.45
2022-09-23T11:50:42.395Z,7.05
2022-09-23T11:53:11.923Z,7.53
2022-09-23T11:55:56.143Z,7.45
2022-09-23T11:58:28.414Z,8.18
2022-09-23T12:01:07.704Z,8.35
2022-09-23T12:03:58.783Z,10.25
2022-09-23T12:06:51.243Z,8.30
2022-09-23T12:09:57.800Z,7.07
2022-09-23T12:12:27.257Z,7.63
2022-09-23T12:14:57.810Z,7.85
2022-09-23T12:17:56.508Z,7.03
2022-09-23T12:20:57.926Z,7.83
2022-09-23T12:23:46.261Z,7.85
2022-09-23T12:26:17.115Z,8.15
2022-09-23T12:28:45.221Z,8.50
2022-09-23T12:31:18.199Z,8.73
2022-09-23T12:34:03.863Z,9.70
2022-09-23T12:36:34.729Z,8.15
2022-09-23T12:39:07.913Z,8.10
2022-09-23T12:41:40.126Z,8.23
2022-09-23T12:44:15.490Z,7.85
2022-09-23T12:46:45.818Z,8.53
2022-09-23T12:49:39.165Z,6.75
2022-09-23T12:52:16.358Z,9.05
2022-09-23T12:54:45.839Z,7.13
2022-09-23T12:57:14.191Z,6.53
2022-09-23T12:59:59.149Z,7.53
2022-09-23T13:02:41.561Z,8.90
2022-09-23T13:05:26.303Z,7.93
2022-09-23T13:07:58.516Z,7.88
2022-09-23T13:10:29.090Z,8.93
2022-09-23T13:12:56.719Z,7.93
2022-09-23T13:15:35.898Z,7.25
2022-09-23T13:18:20.699Z,6.90
2022-09-23T13:20:51.832Z,6.85
2022-09-23T13:23:30.198Z,6.85
2022-09-23T13:26:02.296Z,7.20
2022-09-23T13:28:34.634Z,8.85
2022-09-23T13:31:06.155Z,5.72
2022-09-23T13:33:42.642Z,6.80
2022-09-23T13:36:18.254Z,6.63
2022-09-23T13:38:46.895Z,7.87
2022-09-23T13:41:20.120Z,7.00
2022-09-23T13:44:00.569Z,8.98
2022-09-23T13:46:30.494Z,8.85
2022-09-23T13:48:57.075Z,7.22
2022-09-23T13:51:30.447Z,6.50
2022-09-23T13:53:59.537Z,7.20
2022-09-23T13:56:31.109Z,6.80
2022-09-23T13:59:29.515Z,8.10
2022-09-23T14:02:10.777Z,7.40
2022-09-23T14:04:37.661Z,6.23
2022-09-23T14:07:04.637Z,6.28
2022-09-23T14:09:31.484Z,6.22
2022-09-23T14:11:59.795Z,6.18
2022-09-23T14:14:28.011Z,7.05
2022-09-23T14:16:56.757Z,5.33
2022-09-23T14:19:24.132Z,6.55
2022-09-23T14:21:53.308Z,5.50
2022-09-23T14:24:25.241Z,5.10
2022-09-23T14:26:57.706Z,5.35
2022-09-23T14:29:26.964Z,7.63
2022-09-23T14:32:00.878Z,7.53
2022-09-23T14:34:48.382Z,6.63
2022-09-23T14:37:49.581Z,6.10
2022-09-23T14:40:22.238Z,4.90
2022-09-23T14:43:00.180Z,7.73
2022-09-23T14:45:29.289Z,7.10
2022-09-23T14:48:10.666Z,6.22
2022-09-23T14:50:37.729Z,7.20
2022-09-23T14:53:06.042Z,5.97
2022-09-23T14:55:35.304Z,6.70
2022-09-23T14:58:04.717Z,5.65
2022-09-23T15:00:31.635Z,6.00
2022-09-23T15:03:01.339Z,6.55
2022-09-23T15:05:42.155Z,7.10
2022-09-23T15:08:11.010Z,5.07
2022-09-23T15:10:38.363Z,6.15
2022-09-23T15:13:13.583Z,5.90
2022-09-23T15:15:41.407Z,5.22
2022-09-23T15:18:18.857Z,6.53
2022-09-23T15:20:52.163Z,6.33
2022-09-23T15:23:46.301Z,5.28
2022-09-23T15:26:38.818Z,4.97
2022-09-23T15:29:09.579Z,7.63
2022-09-23T15:31:36.160Z,4.38
2022-09-23T15:34:02.893Z,6.40
2022-09-23T15:36:29.436Z,6.82
2022-09-23T15:38:57.242Z,6.45
2022-09-23T15:41:24.395Z,4.55
2022-09-23T15:43:51.427Z,6.35
2022-09-23T15:46:22.130Z,5.30
2022-09-23T15:49:09.589Z,7.10
2022-09-23T15:51:37.306Z,5.97
2022-09-23T15:54:05.303Z,6.00
2022-09-23T15:56:31.904Z,5.80
2022-09-23T15:58:58.343Z,5.60
2022-09-23T16:01:30.496Z,7.57
2022-09-23T16:03:57.450Z,6.28
2022-09-23T16:06:27.660Z,6.10
2022-09-23T16:08:54.570Z,6.97
2022-09-23T16:11:24.347Z,7.17
2022-09-23T16:13:51.103Z,9.52
2022-09-23T16:16:21.058Z,6.30
2022-09-23T16:18:48.298Z,8.27
2022-09-23T16:21:17.712Z,6.22
2022-09-23T16:23:47.425Z,6.67
2022-09-23T16:26:29.585Z,8.55
2022-09-23T16:28:57.551Z,6.13
2022-09-23T16:31:25.641Z,5.40
2022-09-23T16:33:53.198Z,6.65
2022-09-23T16:36:27.258Z,7.83
2022-09-23T16:38:57.778Z,5.93
2022-09-23T16:41:25.231Z,6.90
2022-09-23T16:43:52.897Z,6.30
2022-09-23T16:46:20.624Z,6.90
2022-09-23T16:48:52.246Z,6.20
2022-09-23T16:51:21.106Z,8.43
2022-09-23T16:53:51.878Z,6.07
2022-09-23T16:56:25.698Z,7.32
2022-09-23T16:58:54.798Z,6.90
2022-09-23T17:01:44.541Z,7.70
2022-09-23T17:04:11.760Z,6.35
2022-09-23T17:06:46.272Z,8.20
2022-09-23T17:09:12.757Z,6.30
2022-09-23T17:11:39.253Z,7.35
2022-09-23T17:14:05.812Z,7.30
2022-09-23T17:16:33.486Z,9.38
2022-09-23T17:19:06.885Z,8.25
2022-09-23T17:21:33.792Z,7.47
2022-09-23T17:24:00.751Z,8.70
2022-09-23T17:26:27.618Z,7.33
2022-09-23T17:28:55.533Z,8.45
2022-09-23T17:31:22.826Z,9.20
2022-09-23T17:33:49.716Z,13.35
2022-09-23T17:36:16.539Z,8.65
2022-09-23T17:38:44.971Z,7.97
2022-09-23T17:41:12.242Z,7.28
2022-09-23T17:43:38.838Z,10.05
2022-09-23T17:46:07.765Z,8.95
2022-09-23T17:48:36.458Z,7.65
2022-09-23T17:51:05.951Z,10.37
2022-09-23T17:53:35.033Z,9.20
2022-09-23T17:56:04.247Z,11.50
2022-09-23T17:58:33.299Z,8.05
2022-09-23T18:01:00.122Z,9.25
2022-09-23T18:03:28.099Z,10.07
2022-09-23T18:05:54.633Z,10.23
2022-09-23T18:08:21.271Z,8.45
2022-09-23T18:10:47.686Z,8.98
2022-09-23T18:13:14.779Z,7.85
2022-09-23T18:15:41.413Z,12.77
2022-09-23T18:18:07.838Z,9.23
2022-09-23T18:20:34.310Z,11.32
2022-09-23T18:23:00.737Z,9.00
2022-09-23T18:25:39.154Z,9.15
2022-09-23T18:28:06.151Z,10.73
2022-09-23T18:30:33.487Z,10.27
2022-09-23T18:32:59.967Z,11.07
2022-09-23T18:35:26.489Z,10.70
2022-09-23T18:37:52.930Z,8.82
2022-09-23T18:40:19.457Z,9.33
2022-09-23T18:42:46.002Z,8.30
2022-09-23T18:45:12.434Z,11.45
2022-09-23T18:47:57.227Z,11.98
2022-09-23T18:50:43.134Z,9.98
2022-09-23T18:53:09.970Z,14.93
2022-09-23T18:55:36.551Z,8.48
2022-09-23T18:58:03.325Z,12.45
2022-09-23T19:00:30.050Z,10.88
2022-09-23T19:02:56.536Z,11.52
2022-09-23T19:05:23.061Z,9.10
2022-09-23T19:07:49.549Z,12.18
2022-09-23T19:10:16.356Z,10.80
2022-09-23T19:12:42.756Z,12.52
2022-09-23T19:15:09.386Z,9.07
2022-09-23T19:17:35.833Z,10.40
2022-09-23T19:20:02.270Z,10.35
2022-09-23T19:22:30.360Z,10.27
2022-09-23T19:24:56.797Z,11.35
2022-09-23T19:27:23.421Z,12.45
2022-09-23T19:29:50.236Z,12.60
2022-09-23T19:32:16.710Z,10.70
2022-09-23T19:34:44.163Z,9.35
2022-09-23T19:37:10.589Z,9.80
2022-09-23T19:39:37.514Z,10.48
2022-09-23T19:42:04.039Z,8.67
2022-09-23T19:44:30.481Z,11.68
2022-09-23T19:46:57.735Z,11.95
2022-09-23T19:49:25.279Z,9.85
2022-09-23T19:51:55.035Z,11.18
2022-09-23T19:54:21.456Z,10.23
2022-09-23T19:56:48.610Z,11.43
2022-09-23T19:59:18.488Z,11.27
